createdAt,value
2019-04-03T00:00:53.773Z,0
2019-04-03T00:01:53.655Z,0
2019-04-03T00:02:53.662Z,0
2019-04-03T00:03:53.579Z,0
2019-04-03T00:04:53.595Z,0
2019-04-03T00:05:53.659Z,0
2019-04-03T00:06:53.666Z,0
2019-04-03T00:07:53.656Z,0
2019-04-03T00:08:53.656Z,0
2019-04-03T00:09:53.598Z,0
2019-04-03T00:10:53.672Z,0
2019-04-03T00:11:53.599Z,0
2019-04-03T00:12:53.590Z,0
2019-04-03T00:13:53.586Z,0
2019-04-03T00:14:53.659Z,0
2019-04-03T00:15:53.669Z,0
2019-04-03T00:16:53.757Z,0
2019-04-03T00:17:53.594Z,0
2019-04-03T00:18:53.684Z,0
2019-04-03T00:19:53.609Z,0
2019-04-03T00:20:53.593Z,0
2019-04-03T00:21:53.659Z,0
2019-04-03T00:22:53.586Z,0
2019-04-03T00:23:53.654Z,0
2019-04-03T00:24:53.586Z,0
2019-04-03T00:25:53.655Z,0
2019-04-03T00:26:53.595Z,0
2019-04-03T00:27:53.662Z,0
2019-04-03T00:28:53.660Z,0
2019-04-03T00:29:53.669Z,0
2019-04-03T00:30:53.674Z,0
2019-04-03T00:31:53.963Z,0
2019-04-03T00:32:54.060Z,0
2019-04-03T00:33:53.902Z,0
2019-04-03T00:34:53.938Z,0
2019-04-03T00:35:53.913Z,0
2019-04-03T00:36:53.731Z,0
2019-04-03T00:37:53.904Z,0
2019-04-03T00:38:54.294Z,0
2019-04-03T00:39:54.517Z,0
2019-04-03T00:40:54.419Z,0
2019-04-03T00:41:54.674Z,0
2019-04-03T00:42:54.604Z,0
2019-04-03T00:43:54.496Z,0
2019-04-03T00:44:54.703Z,0
2019-04-03T00:45:54.634Z,0
2019-04-03T00:46:53.870Z,0
2019-04-03T00:47:55.284Z,0
2019-04-03T00:48:55.194Z,0
2019-04-03T00:49:56.092Z,0
2019-04-03T00:50:56.274Z,0
2019-04-03T00:51:53.665Z,0
2019-04-03T00:52:53.541Z,0
2019-04-03T00:53:53.609Z,0
2019-04-03T00:54:54.809Z,0
2019-04-03T00:55:54.753Z,0
2019-04-03T00:56:56.096Z,0
2019-04-03T00:57:54.762Z,0
2019-04-03T00:58:55.233Z,0
2019-04-03T00:59:54.699Z,0
2019-04-03T01:00:54.729Z,0
2019-04-03T01:01:54.733Z,0
2019-04-03T01:02:53.698Z,0
2019-04-03T01:03:53.642Z,0
2019-04-03T01:04:53.711Z,0
2019-04-03T01:05:53.625Z,0
2019-04-03T01:06:53.705Z,0
2019-04-03T01:07:53.699Z,0
2019-04-03T01:08:53.646Z,0
2019-04-03T01:09:53.722Z,0
2019-04-03T01:10:53.672Z,0
2019-04-03T01:11:53.600Z,0
2019-04-03T01:12:53.718Z,0
2019-04-03T01:13:53.635Z,0
2019-04-03T01:14:53.624Z,0
2019-04-03T01:15:53.604Z,0
2019-04-03T01:16:53.692Z,0
2019-04-03T01:17:53.595Z,0
2019-04-03T01:18:53.655Z,0
2019-04-03T01:19:53.684Z,0
2019-04-03T01:20:53.639Z,0
2019-04-03T01:21:53.710Z,0
2019-04-03T01:22:53.654Z,0
2019-04-03T01:23:53.638Z,0
2019-04-03T01:24:53.654Z,0
2019-04-03T01:25:53.730Z,0
2019-04-03T01:26:53.717Z,0
2019-04-03T01:27:53.770Z,0
2019-04-03T01:28:53.703Z,0
2019-04-03T01:29:53.811Z,0
2019-04-03T01:30:53.657Z,0
2019-04-03T01:31:53.646Z,0
2019-04-03T01:32:53.644Z,0
2019-04-03T01:33:53.723Z,0
2019-04-03T01:34:53.684Z,0
2019-04-03T01:35:53.859Z,0
2019-04-03T01:36:53.734Z,0
2019-04-03T01:37:53.727Z,0
2019-04-03T01:38:53.658Z,0
2019-04-03T01:39:53.728Z,0
2019-04-03T01:40:53.762Z,0
2019-04-03T01:41:53.713Z,0
2019-04-03T01:42:53.708Z,0
2019-04-03T01:43:54.308Z,0
2019-04-03T01:44:55.413Z,0
2019-04-03T01:45:56.591Z,0
2019-04-03T01:46:53.718Z,0
2019-04-03T01:47:53.649Z,0
2019-04-03T01:48:53.643Z,0
2019-04-03T01:49:53.681Z,0
2019-04-03T01:50:53.734Z,0
2019-04-03T01:51:53.728Z,0
2019-04-03T01:52:53.743Z,0
2019-04-03T01:53:53.669Z,0
2019-04-03T01:54:53.661Z,0
2019-04-03T01:55:53.677Z,0
2019-04-03T01:56:53.680Z,0
2019-04-03T01:57:53.846Z,0
2019-04-03T01:58:53.746Z,0
2019-04-03T01:59:53.808Z,0
2019-04-03T02:00:53.668Z,0
2019-04-03T02:01:53.670Z,0
2019-04-03T02:02:53.699Z,0
2019-04-03T02:03:53.739Z,0
2019-04-03T02:04:53.734Z,0
2019-04-03T02:05:53.740Z,0
2019-04-03T02:06:53.741Z,0
2019-04-03T02:07:53.796Z,0
2019-04-03T02:08:53.723Z,0
2019-04-03T02:09:53.676Z,0
2019-04-03T02:10:53.882Z,0
2019-04-03T02:11:53.736Z,0
2019-04-03T02:12:53.734Z,0
2019-04-03T02:13:53.663Z,0
2019-04-03T02:14:53.739Z,0
2019-04-03T02:15:53.690Z,0
2019-04-03T02:16:54.082Z,0
2019-04-03T02:17:54.952Z,0
2019-04-03T02:18:55.294Z,0
2019-04-03T02:19:56.002Z,0
2019-04-03T02:20:53.673Z,0
2019-04-03T02:21:53.850Z,0
2019-04-03T02:22:53.646Z,0
2019-04-03T02:23:53.664Z,0
2019-04-03T02:24:53.643Z,0
2019-04-03T02:25:53.653Z,0
2019-04-03T02:26:53.782Z,0
2019-04-03T02:27:53.676Z,0
2019-04-03T02:28:53.633Z,0
2019-04-03T02:29:53.612Z,0
2019-04-03T02:30:53.691Z,0
2019-04-03T02:31:53.980Z,0
2019-04-03T02:32:56.298Z,0
2019-04-03T02:33:53.834Z,0
2019-04-03T02:34:53.753Z,0
2019-04-03T02:35:53.675Z,0
2019-04-03T02:36:53.760Z,0
2019-04-03T02:37:53.713Z,0
2019-04-03T02:38:54.647Z,0
2019-04-03T02:39:53.754Z,0
2019-04-03T02:40:53.796Z,0
2019-04-03T02:41:53.764Z,0
2019-04-03T02:42:53.780Z,0
2019-04-03T02:43:53.688Z,0
2019-04-03T02:44:53.766Z,0
2019-04-03T02:45:55.556Z,0
2019-04-03T02:46:53.692Z,0
2019-04-03T02:47:53.697Z,0
2019-04-03T02:48:53.795Z,0
2019-04-03T02:49:53.689Z,0
2019-04-03T02:50:53.731Z,0
2019-04-03T02:51:53.936Z,0
2019-04-03T02:52:56.934Z,0
2019-04-03T02:53:53.846Z,0
2019-04-03T02:54:53.986Z,0
2019-04-03T02:55:53.707Z,0
2019-04-03T02:56:53.779Z,0
2019-04-03T02:57:54.083Z,0
2019-04-03T02:58:54.981Z,0
2019-04-03T02:59:57.825Z,0
2019-04-03T03:00:53.783Z,0
2019-04-03T03:01:53.784Z,0
2019-04-03T03:02:53.791Z,0
2019-04-03T03:03:53.955Z,0
2019-04-03T03:04:55.172Z,0
2019-04-03T03:05:53.737Z,0
2019-04-03T03:06:53.813Z,0
2019-04-03T03:07:54.210Z,0
2019-04-03T03:08:53.725Z,0
2019-04-03T03:09:53.743Z,0
2019-04-03T03:10:53.732Z,0
2019-04-03T03:11:56.009Z,0
2019-04-03T03:12:53.793Z,0
2019-04-03T03:13:53.800Z,0
2019-04-03T03:14:53.809Z,0
2019-04-03T03:15:53.731Z,0
2019-04-03T03:16:53.726Z,0
2019-04-03T03:17:55.395Z,0
2019-04-03T03:18:53.802Z,0
2019-04-03T03:19:53.817Z,0
2019-04-03T03:20:54.214Z,0
2019-04-03T03:21:53.828Z,0
2019-04-03T03:22:54.043Z,0
2019-04-03T03:23:56.211Z,0
2019-04-03T03:24:53.923Z,0
2019-04-03T03:25:53.810Z,0
2019-04-03T03:26:53.743Z,0
2019-04-03T03:27:54.011Z,0
2019-04-03T03:28:53.819Z,0
2019-04-03T03:29:53.797Z,0
2019-04-03T03:30:59.654Z,0
2019-04-03T03:32:09.372Z,0
2019-04-03T03:33:19.479Z,0
2019-04-03T03:34:00.540Z,0
2019-04-03T03:35:06.379Z,0
2019-04-03T03:35:54.074Z,0
2019-04-03T03:36:59.191Z,0
2019-04-03T03:37:53.680Z,0
2019-04-03T03:38:53.698Z,0
2019-04-03T03:39:53.753Z,0
2019-04-03T03:40:53.671Z,0
2019-04-03T03:41:56.645Z,0
2019-04-03T03:42:53.791Z,0
2019-04-03T03:43:54.311Z,0
2019-04-03T03:44:53.725Z,0
2019-04-03T03:45:54.165Z,0
2019-04-03T03:46:54.007Z,0
2019-04-03T03:47:53.702Z,0
2019-04-03T03:48:53.970Z,0
2019-04-03T03:49:54.147Z,0
2019-04-03T03:50:57.203Z,0
2019-04-03T03:51:53.886Z,0
2019-04-03T03:52:53.832Z,0
2019-04-03T03:53:54.084Z,0
2019-04-03T03:54:53.748Z,0
2019-04-03T03:55:56.879Z,0
2019-04-03T03:56:53.851Z,0
2019-04-03T03:57:53.991Z,0
2019-04-03T03:58:54.084Z,0
2019-04-03T03:59:53.827Z,0
2019-04-03T04:00:57.888Z,0
2019-04-03T04:01:53.838Z,0
2019-04-03T04:02:54.046Z,0
2019-04-03T04:03:53.848Z,0
2019-04-03T04:04:53.830Z,0
2019-04-03T04:05:56.138Z,0
2019-04-03T04:06:53.945Z,0
2019-04-03T04:07:53.768Z,0
2019-04-03T04:08:53.776Z,0
2019-04-03T04:09:54.116Z,0
2019-04-03T04:10:58.159Z,0
2019-04-03T04:11:53.763Z,0
2019-04-03T04:12:53.824Z,0
2019-04-03T04:13:53.762Z,0
2019-04-03T04:14:56.164Z,0
2019-04-03T04:15:54.160Z,0
2019-04-03T04:16:53.755Z,0
2019-04-03T04:17:53.797Z,0
2019-04-03T04:18:57.322Z,0
2019-04-03T04:19:54.200Z,0
2019-04-03T04:20:53.847Z,4
2019-04-03T04:21:54.042Z,4
2019-04-03T04:22:54.067Z,4
2019-04-03T04:23:56.039Z,4
2019-04-03T04:24:53.766Z,4
2019-04-03T04:25:53.846Z,4
2019-04-03T04:26:53.779Z,8
2019-04-03T04:27:53.785Z,8
2019-04-03T04:28:53.850Z,8
2019-04-03T04:29:53.787Z,12
2019-04-03T04:30:54.006Z,12
2019-04-03T04:31:53.763Z,16
2019-04-03T04:32:53.835Z,16
2019-04-03T04:33:53.932Z,20
2019-04-03T04:34:53.837Z,28
2019-04-03T04:35:53.959Z,32
2019-04-03T04:36:55.337Z,40
2019-04-03T04:37:55.998Z,44
2019-04-03T04:38:54.000Z,52
2019-04-03T04:39:53.766Z,60
2019-04-03T04:40:53.803Z,72
2019-04-03T04:41:53.788Z,84
2019-04-03T04:42:53.955Z,96
2019-04-03T04:43:54.013Z,112
2019-04-03T04:44:53.787Z,124
2019-04-03T04:45:54.107Z,136
2019-04-03T04:46:53.908Z,148
2019-04-03T04:47:53.861Z,160
2019-04-03T04:48:53.787Z,172
2019-04-03T04:49:54.296Z,184
2019-04-03T04:50:55.089Z,208
2019-04-03T04:51:56.579Z,232
2019-04-03T04:52:53.881Z,256
2019-04-03T04:53:53.745Z,284
2019-04-03T04:54:53.831Z,308
2019-04-03T04:55:53.863Z,324
2019-04-03T04:56:54.000Z,344
2019-04-03T04:57:53.874Z,356
2019-04-03T04:58:53.863Z,372
2019-04-03T04:59:53.882Z,388
2019-04-03T05:00:53.945Z,416
2019-04-03T05:01:53.985Z,440
2019-04-03T05:02:53.817Z,476
2019-04-03T05:03:54.490Z,512
2019-04-03T05:04:55.877Z,548
2019-04-03T05:05:53.797Z,596
2019-04-03T05:06:53.867Z,640
2019-04-03T05:07:53.882Z,688
2019-04-03T05:08:53.871Z,736
2019-04-03T05:09:53.812Z,792
2019-04-03T05:10:53.889Z,840
2019-04-03T05:11:53.863Z,884
2019-04-03T05:12:53.854Z,928
2019-04-03T05:13:53.862Z,972
2019-04-03T05:14:53.791Z,1024
2019-04-03T05:15:54.523Z,1080
2019-04-03T05:16:55.900Z,1136
2019-04-03T05:17:53.883Z,1192
2019-04-03T05:18:53.870Z,1252
2019-04-03T05:19:53.955Z,1316
2019-04-03T05:20:54.048Z,1372
2019-04-03T05:21:53.861Z,1412
2019-04-03T05:22:55.418Z,1444
2019-04-03T05:23:55.768Z,1476
2019-04-03T05:24:53.801Z,1508
2019-04-03T05:25:53.806Z,1564
2019-04-03T05:26:53.868Z,1652
2019-04-03T05:27:53.774Z,1780
2019-04-03T05:28:57.487Z,1936
2019-04-03T05:29:53.797Z,2096
2019-04-03T05:30:53.867Z,2252
2019-04-03T05:31:54.098Z,2408
2019-04-03T05:32:53.817Z,2592
2019-04-03T05:33:53.892Z,2788
2019-04-03T05:34:53.823Z,3008
2019-04-03T05:35:53.822Z,3228
2019-04-03T05:36:53.928Z,3428
2019-04-03T05:37:53.832Z,3624
2019-04-03T05:38:54.049Z,3804
2019-04-03T05:39:55.534Z,3964
2019-04-03T05:40:54.721Z,4112
2019-04-03T05:41:53.889Z,4240
2019-04-03T05:42:53.892Z,4328
2019-04-03T05:43:53.898Z,4404
2019-04-03T05:44:53.918Z,4488
2019-04-03T05:45:54.100Z,4600
2019-04-03T05:46:53.816Z,4736
2019-04-03T05:47:53.810Z,4900
2019-04-03T05:48:53.888Z,5056
2019-04-03T05:49:55.763Z,5184
2019-04-03T05:50:53.812Z,5324
2019-04-03T05:51:53.817Z,5444
2019-04-03T05:52:53.889Z,5572
2019-04-03T05:53:54.563Z,5708
2019-04-03T05:54:54.285Z,5836
2019-04-03T05:55:53.952Z,5956
2019-04-03T05:56:53.835Z,6080
2019-04-03T05:57:53.819Z,6236
2019-04-03T05:58:56.824Z,6412
2019-04-03T06:00:00.624Z,6584
2019-04-03T06:01:04.473Z,6764
2019-04-03T06:01:53.962Z,6944
2019-04-03T06:02:56.917Z,7132
2019-04-03T06:03:53.943Z,7340
2019-04-03T06:04:54.070Z,7568
2019-04-03T06:05:57.205Z,7784
2019-04-03T06:06:53.918Z,8020
2019-04-03T06:07:53.915Z,8256
2019-04-03T06:08:56.316Z,8484
2019-04-03T06:09:58.317Z,8672
2019-04-03T06:10:54.000Z,8808
2019-04-03T06:11:53.914Z,8904
2019-04-03T06:12:53.912Z,8948
2019-04-03T06:13:54.055Z,9000
2019-04-03T06:14:53.920Z,9080
2019-04-03T06:15:54.152Z,9192
2019-04-03T06:16:56.125Z,9372
2019-04-03T06:17:55.083Z,9640
2019-04-03T06:18:53.921Z,10080
2019-04-03T06:19:53.923Z,10756
2019-04-03T06:20:53.921Z,11620
2019-04-03T06:21:53.912Z,12572
2019-04-03T06:22:54.106Z,13380
2019-04-03T06:23:54.021Z,13936
2019-04-03T06:24:55.757Z,14288
2019-04-03T06:25:53.884Z,14492
2019-04-03T06:26:53.914Z,14580
2019-04-03T06:27:53.852Z,14572
2019-04-03T06:28:53.994Z,14544
2019-04-03T06:29:55.319Z,14580
2019-04-03T06:30:55.634Z,14740
2019-04-03T06:31:53.846Z,14968
2019-04-03T06:32:55.045Z,15044
2019-04-03T06:33:53.921Z,15012
2019-04-03T06:34:53.913Z,15044
2019-04-03T06:35:53.868Z,15188
2019-04-03T06:36:53.844Z,15256
2019-04-03T06:37:53.924Z,15152
2019-04-03T06:38:54.305Z,14928
2019-04-03T06:39:53.849Z,14740
2019-04-03T06:40:53.954Z,14668
2019-04-03T06:41:53.812Z,14792
2019-04-03T06:42:54.158Z,15072
2019-04-03T06:43:54.488Z,15424
2019-04-03T06:44:54.201Z,15836
2019-04-03T06:45:57.069Z,16108
2019-04-03T06:46:54.971Z,16136
2019-04-03T06:47:53.932Z,15920
2019-04-03T06:48:55.684Z,15596
2019-04-03T06:49:53.838Z,15404
2019-04-03T06:50:53.930Z,15316
2019-04-03T06:51:53.931Z,15264
2019-04-03T06:52:54.135Z,15184
2019-04-03T06:53:53.936Z,14944
2019-04-03T06:54:53.941Z,14524
2019-04-03T06:55:53.939Z,14652
2019-04-03T06:56:54.172Z,15208
2019-04-03T06:57:53.846Z,15960
2019-04-03T06:58:53.911Z,16732
2019-04-03T06:59:53.863Z,17632
2019-04-03T07:00:55.116Z,18564
2019-04-03T07:01:53.866Z,19368
2019-04-03T07:02:53.861Z,19920
2019-04-03T07:03:53.882Z,20308
2019-04-03T07:04:53.804Z,20604
2019-04-03T07:05:53.808Z,20856
2019-04-03T07:06:55.838Z,21096
2019-04-03T07:07:53.902Z,21568
2019-04-03T07:08:53.969Z,21728
2019-04-03T07:09:53.885Z,21888
2019-04-03T07:10:55.474Z,21984
2019-04-03T07:11:53.885Z,22080
2019-04-03T07:12:53.950Z,22176
2019-04-03T07:13:54.453Z,22240
2019-04-03T07:14:53.960Z,22304
2019-04-03T07:15:55.758Z,22400
2019-04-03T07:16:53.963Z,22400
2019-04-03T07:17:53.897Z,22400
2019-04-03T07:18:53.962Z,22400
2019-04-03T07:19:53.895Z,22592
2019-04-03T07:20:53.985Z,22944
2019-04-03T07:21:55.228Z,23456
2019-04-03T07:22:54.142Z,24160
2019-04-03T07:23:53.887Z,25024
2019-04-03T07:24:53.892Z,25888
2019-04-03T07:25:53.904Z,26560
2019-04-03T07:26:53.919Z,26880
2019-04-03T07:27:53.928Z,27072
2019-04-03T07:28:53.853Z,26752
2019-04-03T07:29:53.895Z,26336
2019-04-03T07:30:54.193Z,25952
2019-04-03T07:31:55.198Z,25696
2019-04-03T07:32:56.685Z,25632
2019-04-03T07:33:54.078Z,25856
2019-04-03T07:34:53.971Z,26368
2019-04-03T07:35:53.917Z,26784
2019-04-03T07:36:54.128Z,27168
2019-04-03T07:37:53.908Z,27616
2019-04-03T07:38:53.907Z,27744
2019-04-03T07:39:53.984Z,27872
2019-04-03T07:40:54.084Z,27776
2019-04-03T07:41:54.814Z,27584
2019-04-03T07:42:56.014Z,27328
2019-04-03T07:43:53.970Z,27040
2019-04-03T07:44:53.989Z,26752
2019-04-03T07:45:53.885Z,26656
2019-04-03T07:46:55.231Z,26752
2019-04-03T07:47:53.939Z,27040
2019-04-03T07:48:53.913Z,27520
2019-04-03T07:49:53.897Z,28192
2019-04-03T07:50:54.026Z,28896
2019-04-03T07:51:54.200Z,29600
2019-04-03T07:52:54.050Z,30144
2019-04-03T07:53:53.914Z,30432
2019-04-03T07:54:56.447Z,30560
2019-04-03T07:55:55.324Z,30688
2019-04-03T07:56:56.827Z,30976
2019-04-03T07:57:53.925Z,31328
2019-04-03T07:59:54.200Z,32512
2019-04-03T08:00:53.924Z,33120
2019-04-03T08:01:53.869Z,33792
2019-04-03T08:02:53.905Z,34336
2019-04-03T08:03:53.982Z,34528
2019-04-03T08:04:58.006Z,34400
2019-04-03T08:05:55.917Z,34048
2019-04-03T08:06:53.909Z,33824
2019-04-03T08:07:54.082Z,33888
2019-04-03T08:09:06.921Z,34112
2019-04-03T08:09:53.912Z,34304
2019-04-03T08:10:53.987Z,34272
2019-04-03T08:11:53.995Z,34208
2019-04-03T08:12:54.119Z,33792
2019-04-03T08:13:54.002Z,33312
2019-04-03T08:15:54.019Z,32832
2019-04-03T08:16:56.331Z,32928
2019-04-03T08:17:56.797Z,33184
2019-04-03T08:18:54.022Z,33568
2019-04-03T08:19:55.162Z,33888
2019-04-03T08:20:55.124Z,33984
2019-04-03T08:21:54.011Z,33952
2019-04-03T08:22:54.026Z,33888
2019-04-03T08:23:53.907Z,33792
2019-04-03T08:24:54.333Z,33376
2019-04-03T08:25:54.804Z,32576
2019-04-03T08:26:54.010Z,31712
2019-04-03T08:27:55.339Z,31008
2019-04-03T08:28:54.010Z,30560
2019-04-03T08:29:54.179Z,30272
2019-04-03T08:30:54.018Z,30112
2019-04-03T08:31:53.947Z,30016
2019-04-03T08:32:53.955Z,29952
2019-04-03T08:33:54.014Z,29792
2019-04-03T08:34:53.948Z,29536
2019-04-03T08:35:54.425Z,29280
2019-04-03T08:36:54.215Z,29088
2019-04-03T08:37:53.947Z,29024
2019-04-03T08:38:53.950Z,28992
2019-04-03T08:39:57.229Z,28960
2019-04-03T08:40:53.968Z,28960
2019-04-03T08:41:56.158Z,28800
2019-04-03T08:42:53.957Z,28512
2019-04-03T08:43:53.922Z,28320
2019-04-03T08:44:54.009Z,28256
2019-04-03T08:45:54.053Z,28224
2019-04-03T08:46:54.210Z,28128
2019-04-03T08:47:54.014Z,27968
2019-04-03T08:48:55.123Z,27872
2019-04-03T08:49:56.455Z,27872
2019-04-03T08:50:53.990Z,28064
2019-04-03T08:51:54.024Z,28576
2019-04-03T08:52:53.962Z,29472
2019-04-03T08:53:54.915Z,30688
2019-04-03T08:54:53.962Z,32032
2019-04-03T08:55:56.416Z,33440
2019-04-03T08:56:53.964Z,34560
2019-04-03T08:57:54.229Z,35360
2019-04-03T08:58:54.811Z,35776
2019-04-03T08:59:54.032Z,35936
2019-04-03T09:00:53.967Z,35968
2019-04-03T09:01:55.750Z,36160
2019-04-03T09:02:53.931Z,36608
2019-04-03T09:03:53.914Z,36992
2019-04-03T09:04:54.355Z,37440
2019-04-03T09:05:55.738Z,37792
2019-04-03T09:06:54.625Z,38144
2019-04-03T09:07:56.095Z,38432
2019-04-03T09:08:54.005Z,38400
2019-04-03T09:09:54.152Z,37888
2019-04-03T09:10:54.034Z,37344
2019-04-03T09:11:53.987Z,37600
2019-04-03T09:12:54.045Z,38496
2019-04-03T09:13:54.827Z,39680
2019-04-03T09:14:56.390Z,41152
2019-04-03T09:15:54.372Z,42592
2019-04-03T09:16:54.030Z,43424
2019-04-03T09:17:54.042Z,43456
2019-04-03T09:18:54.043Z,43968
2019-04-03T09:19:56.334Z,44832
2019-04-03T09:20:54.047Z,45056
2019-04-03T09:21:54.196Z,44768
2019-04-03T09:22:54.519Z,44000
2019-04-03T09:23:56.697Z,44832
2019-04-03T09:24:54.273Z,46048
2019-04-03T09:25:54.067Z,45792
2019-04-03T09:26:54.258Z,44320
2019-04-03T09:27:53.957Z,44544
2019-04-03T09:28:54.037Z,48960
2019-04-03T09:29:54.046Z,52256
2019-04-03T09:30:54.206Z,53440
2019-04-03T09:31:55.952Z,48512
2019-04-03T09:32:54.458Z,43456
2019-04-03T09:33:56.267Z,41088
2019-04-03T09:34:53.995Z,43936
2019-04-03T09:35:54.286Z,51584
2019-04-03T09:36:54.196Z,56160
2019-04-03T09:37:54.319Z,59392
2019-04-03T09:38:54.081Z,61536
2019-04-03T09:39:54.083Z,61248
2019-04-03T09:40:54.061Z,60640
2019-04-03T09:41:54.014Z,58880
2019-04-03T09:42:53.975Z,56608
2019-04-03T09:43:54.718Z,54528
2019-04-03T09:44:56.263Z,53088
2019-04-03T09:45:53.996Z,52160
2019-04-03T09:46:54.085Z,51104
2019-04-03T09:47:54.005Z,49984
2019-04-03T09:48:53.965Z,48352
2019-04-03T09:49:54.282Z,46400
2019-04-03T09:50:54.387Z,44320
2019-04-03T09:51:53.967Z,44224
2019-04-03T09:52:55.301Z,44320
2019-04-03T09:53:53.987Z,42624
2019-04-03T09:54:54.261Z,41952
2019-04-03T09:55:54.022Z,41760
2019-04-03T09:57:01.123Z,40576
2019-04-03T09:57:54.097Z,40608
2019-04-03T09:58:55.942Z,40672
2019-04-03T09:59:54.013Z,39776
2019-04-03T10:00:54.029Z,39008
2019-04-03T10:01:54.064Z,40288
2019-04-03T10:02:54.310Z,41312
2019-04-03T10:03:55.626Z,41536
2019-04-03T10:04:54.073Z,42592
2019-04-03T10:05:54.150Z,44000
2019-04-03T10:06:54.069Z,44384
2019-04-03T10:07:53.998Z,45088
2019-04-03T10:08:54.074Z,47776
2019-04-03T10:09:54.848Z,51232
2019-04-03T10:10:54.001Z,54560
2019-04-03T10:11:54.083Z,57056
2019-04-03T10:12:54.619Z,58336
2019-04-03T10:13:54.965Z,59808
2019-04-03T10:14:54.085Z,59232
2019-04-03T10:15:54.024Z,59264
2019-04-03T10:16:54.109Z,58112
2019-04-03T10:17:54.382Z,58656
2019-04-03T10:18:54.060Z,60512
2019-04-03T10:19:54.024Z,61760
2019-04-03T10:20:54.198Z,61376
2019-04-03T10:21:54.030Z,60032
2019-04-03T10:22:56.327Z,59680
2019-04-03T10:23:54.034Z,59968
2019-04-03T10:24:54.139Z,60896
2019-04-03T10:25:54.311Z,61504
2019-04-03T10:26:54.029Z,61184
2019-04-03T10:27:54.280Z,62432
2019-04-03T10:28:54.026Z,61792
2019-04-03T10:29:56.024Z,60384
2019-04-03T10:30:54.473Z,58784
2019-04-03T10:31:55.785Z,56960
2019-04-03T10:32:54.032Z,55680
2019-04-03T10:33:54.113Z,55520
2019-04-03T10:34:54.028Z,55296
2019-04-03T10:35:54.106Z,54912
2019-04-03T10:36:54.029Z,53920
2019-04-03T10:37:54.148Z,54560
2019-04-03T10:38:54.142Z,55552
2019-04-03T10:39:54.106Z,55328
2019-04-03T10:40:56.348Z,55552
2019-04-03T10:41:54.098Z,57568
2019-04-03T10:42:54.060Z,59456
2019-04-03T10:43:54.375Z,62880
2019-04-03T10:44:54.455Z,67520
2019-04-03T10:45:54.060Z,66176
2019-04-03T10:46:54.392Z,63744
2019-04-03T10:47:56.340Z,61664
2019-04-03T10:48:54.010Z,62976
2019-04-03T10:49:54.100Z,66720
2019-04-03T10:50:54.108Z,67424
2019-04-03T10:51:54.115Z,69216
2019-04-03T10:52:54.349Z,69376
2019-04-03T10:53:54.114Z,68768
2019-04-03T10:54:55.903Z,67744
2019-04-03T10:55:54.048Z,66912
2019-04-03T10:56:54.263Z,65312
2019-04-03T10:57:54.124Z,63424
2019-04-03T10:58:54.062Z,61152
2019-04-03T10:59:55.076Z,58592
2019-04-03T11:00:54.052Z,59360
2019-04-03T11:01:54.115Z,61760
2019-04-03T11:02:54.136Z,63456
2019-04-03T11:03:54.128Z,62368
2019-04-03T11:04:54.053Z,58816
2019-04-03T11:05:54.123Z,52576
2019-04-03T11:06:54.074Z,46656
2019-04-03T11:07:54.132Z,44704
2019-04-03T11:08:54.318Z,45280
2019-04-03T11:09:54.210Z,46016
2019-04-03T11:10:54.127Z,46304
2019-04-03T11:11:54.353Z,46752
2019-04-03T11:12:54.448Z,46880
2019-04-03T11:13:54.341Z,47168
2019-04-03T11:14:54.129Z,47424
2019-04-03T11:15:54.068Z,46656
2019-04-03T11:16:54.068Z,45824
2019-04-03T11:17:54.132Z,45184
2019-04-03T11:18:59.810Z,43776
2019-04-03T11:19:54.132Z,41696
2019-04-03T11:20:54.061Z,40640
2019-04-03T11:21:56.028Z,41600
2019-04-03T11:23:04.413Z,44640
2019-04-03T11:23:54.130Z,49952
2019-04-03T11:24:54.105Z,54624
2019-04-03T11:25:54.125Z,57632
2019-04-03T11:26:54.440Z,57728
2019-04-03T11:27:54.167Z,57088
2019-04-03T11:28:54.091Z,57472
2019-04-03T11:29:54.121Z,58336
2019-04-03T11:30:55.929Z,58784
2019-04-03T11:31:54.422Z,60224
2019-04-03T11:32:54.144Z,63008
2019-04-03T11:33:54.100Z,66400
2019-04-03T11:34:54.397Z,71424
2019-04-03T11:35:54.491Z,74304
2019-04-03T11:36:54.130Z,77728
2019-04-03T11:37:54.143Z,78144
2019-04-03T11:39:06.574Z,74848
2019-04-03T11:40:02.483Z,71104
2019-04-03T11:40:54.149Z,69056
2019-04-03T11:41:55.545Z,67776
2019-04-03T11:42:54.387Z,67008
2019-04-03T11:43:54.201Z,64928
2019-04-03T11:44:54.159Z,62144
2019-04-03T11:45:54.087Z,58720
2019-04-03T11:46:54.161Z,55040
2019-04-03T11:47:54.530Z,52000
2019-04-03T11:48:54.295Z,49120
2019-04-03T11:49:54.555Z,45856
2019-04-03T11:50:57.001Z,42112
2019-04-03T11:51:54.151Z,38752
2019-04-03T11:52:54.280Z,36000
2019-04-03T11:53:54.338Z,33664
2019-04-03T11:54:54.093Z,31488
2019-04-03T11:55:54.311Z,29696
2019-04-03T11:56:56.427Z,28576
2019-04-03T11:57:54.098Z,27712
2019-04-03T11:58:54.285Z,27072
2019-04-03T11:59:55.415Z,27040
2019-04-03T12:00:54.288Z,28704
2019-04-03T12:01:54.282Z,31616
2019-04-03T12:02:54.412Z,34016
2019-04-03T12:03:54.163Z,34848
2019-04-03T12:04:54.471Z,36160
2019-04-03T12:05:54.167Z,39904
2019-04-03T12:06:54.099Z,45664
2019-04-03T12:07:56.675Z,53248
2019-04-03T12:08:54.519Z,67424
2019-04-03T12:09:54.100Z,76128
2019-04-03T12:10:54.105Z,64288
2019-04-03T12:11:55.365Z,58464
2019-04-03T12:12:54.028Z,53664
2019-04-03T12:13:54.152Z,49952
2019-04-03T12:14:54.073Z,47168
2019-04-03T12:15:57.514Z,44384
2019-04-03T12:16:57.092Z,41696
2019-04-03T12:17:54.376Z,40064
2019-04-03T12:18:54.162Z,39584
2019-04-03T12:19:54.062Z,39616
2019-04-03T12:20:54.071Z,39680
2019-04-03T12:21:54.356Z,39808
2019-04-03T12:22:55.198Z,39648
2019-04-03T12:23:54.371Z,38720
2019-04-03T12:24:54.096Z,37024
2019-04-03T12:25:54.098Z,35872
2019-04-03T12:26:55.390Z,36448
2019-04-03T12:27:54.171Z,38336
2019-04-03T12:28:54.107Z,39648
2019-04-03T12:29:55.170Z,40192
2019-04-03T12:30:54.102Z,40288
2019-04-03T12:32:54.083Z,37280
2019-04-03T12:33:59.464Z,34816
2019-04-03T12:34:54.296Z,34400
2019-04-03T12:35:54.102Z,36160
2019-04-03T12:36:54.133Z,39200
2019-04-03T12:37:54.059Z,41248
2019-04-03T12:38:55.413Z,41312
2019-04-03T12:39:54.117Z,39456
2019-04-03T12:40:54.109Z,36896
2019-04-03T12:41:54.174Z,34560
2019-04-03T12:42:54.310Z,33024
2019-04-03T12:43:54.189Z,31328
2019-04-03T12:44:55.160Z,28960
2019-04-03T12:45:54.131Z,26848
2019-04-03T12:46:54.192Z,25824
2019-04-03T12:47:54.534Z,26400
2019-04-03T12:48:54.265Z,28096
2019-04-03T12:49:55.148Z,29312
2019-04-03T12:50:54.782Z,28768
2019-04-03T12:51:54.131Z,26496
2019-04-03T12:52:54.189Z,23200
2019-04-03T12:53:54.387Z,20148
2019-04-03T12:54:54.675Z,18904
2019-04-03T12:55:57.027Z,19936
2019-04-03T12:56:54.189Z,22816
2019-04-03T12:57:54.182Z,25760
2019-04-03T12:58:54.361Z,27744
2019-04-03T12:59:54.539Z,29024
2019-04-03T13:00:54.363Z,30304
2019-04-03T13:01:54.111Z,31584
2019-04-03T13:02:54.338Z,31904
2019-04-03T13:03:56.088Z,30304
2019-04-03T13:04:54.163Z,27904
2019-04-03T13:05:54.200Z,26432
2019-04-03T13:06:54.081Z,23936
2019-04-03T13:07:54.467Z,18300
2019-04-03T13:08:54.110Z,13172
2019-04-03T13:09:54.632Z,9104
2019-04-03T13:10:54.199Z,6176
2019-04-03T13:11:54.186Z,4764
2019-04-03T13:12:56.324Z,3856
2019-04-03T13:13:54.220Z,3360
2019-04-03T13:14:54.142Z,3644
2019-04-03T13:15:54.128Z,4452
2019-04-03T13:16:54.149Z,6440
2019-04-03T13:17:54.377Z,8568
2019-04-03T13:18:54.161Z,8284
2019-04-03T13:19:54.236Z,6952
2019-04-03T13:20:54.248Z,6244
2019-04-03T13:21:54.139Z,6476
2019-04-03T13:22:54.170Z,6560
2019-04-03T13:23:54.208Z,5904
2019-04-03T13:24:54.147Z,5384
2019-04-03T13:25:54.586Z,5496
2019-04-03T13:26:55.729Z,5908
2019-04-03T13:27:54.220Z,6184
2019-04-03T13:28:54.475Z,6152
2019-04-03T13:29:54.142Z,6232
2019-04-03T13:30:54.171Z,7024
2019-04-03T13:31:54.220Z,8496
2019-04-03T13:33:00.200Z,9760
2019-04-03T13:33:54.395Z,10624
2019-04-03T13:34:54.173Z,11268
2019-04-03T13:35:54.230Z,11660
2019-04-03T13:36:54.241Z,12016